Time;durP1;ratioP1;P1;durP2;ratioP2;P2;SDS_P1;SDS_P2;PMS_P1;PMS_P2;Temp;Humidity;BMP_temperature;BMP_pressure;BME280_temperature;BME280_humidity;BME280_pressure;Samples;Min_cycle;Max_cycle;Signal;HPM_P1;HPM_P2
2023/06/25 00:00:44;;;;;;;;;;;;;;;;;;5050939;28;1240;-59
2023/06/25 00:03:09;;;;;;;;;;;;;;;;;;5050717;28;1108;-58
2023/06/25 00:05:34;;;;;;;;;;;;;;;;;;5051121;28;1009;-57
2023/06/25 00:08:00;;;;;;;;;;;;;;;;;;5045652;28;1934;-58
2023/06/25 00:10:25;;;;;;;;;;;;;;;;;;5049815;28;1095;-58
2023/06/25 00:12:50;;;;;;;;;;;;;;;;;;5050207;28;1100;-59
2023/06/25 00:15:15;;;;;;;;;;;;;;;;;;5050108;28;1140;-58
2023/06/25 00:17:41;;;;;;;;;;;;;;;;;;5050489;28;1108;-58
2023/06/25 00:20:08;;;;;;;;;;;;;;;;;;5048738;28;1484;-58
2023/06/25 00:22:33;;;;;;;;;;;;;;;;;;5049307;28;1194;-58
2023/06/25 00:24:58;;;;;;;;;;;;;;;;;;5044933;28;1598;-58
2023/06/25 00:27:23;;;;;;;;;;;;;;;;;;5041679;28;1914;-57
2023/06/25 00:29:49;;;;;;;;;;;;;;;;;;5050132;28;1085;-58
2023/06/25 00:32:17;;;;;;;;;;;;;;;;;;5050204;28;1141;-57
2023/06/25 00:34:42;;;;;;;;;;;;;;;;;;5050286;28;1225;-57
2023/06/25 00:37:16;;;;;;;;;;;;;;;;;;5049763;28;1177;-57
2023/06/25 00:39:45;;;;;;;;;;;;;;;;;;5048695;28;1325;-58
2023/06/25 00:42:10;;;;;;;;;;;;;;;;;;5049539;28;1167;-57
2023/06/25 00:44:40;;;;;;;;;;;;;;;;;;5049676;28;1100;-57
2023/06/25 00:47:06;;;;;;;;;;;;;;;;;;5049961;28;1910;-59
2023/06/25 00:49:33;;;;;;;;;;;;;;;;;;5048381;28;1175;-58
2023/06/25 00:52:00;;;;;;;;;;;;;;;;;;5048353;28;1305;-57
2023/06/25 00:54:25;;;;;;;;;;;;;;;;;;5047388;28;1566;-57
2023/06/25 00:56:50;;;;;;;;;;;;;;;;;;5035112;28;1066;-58
2023/06/25 00:59:16;;;;;;;;;;;;;;;;;;5049205;28;1281;-57
2023/06/25 01:01:44;;;;;;;;;;;;;;;;;;5037051;28;1029;-58
2023/06/25 01:04:18;;;;;;;;;;;;;;;;;;5048147;28;1143;-57
2023/06/25 01:06:47;;;;;;;;;;;;;;;;;;5049312;28;1975;-58
2023/06/25 01:09:12;;;;;;;;;;;;;;;;;;5048207;28;1151;-58
2023/06/25 01:11:38;;;;;;;;;;;;;;;;;;5048498;28;1105;-58
2023/06/25 01:14:03;;;;;;;;;;;;;;;;;;5049221;28;1168;-58
2023/06/25 01:16:28;;;;;;;;;;;;;;;;;;5049556;28;1179;-58
2023/06/25 01:18:58;;;;;;;;;;;;;;;;;;5049110;28;1096;-58
2023/06/25 01:21:26;;;;;;;;;;;;;;;;;;5048851;28;1478;-58
2023/06/25 01:23:52;;;;;;;;;;;;;;;;;;5049575;28;1143;-58
2023/06/25 01:26:17;;;;;;;;;;;;;;;;;;5035549;28;1922;-58
2023/06/25 01:28:42;;;;;;;;;;;;;;;;;;5049184;28;1115;-58
2023/06/25 01:31:08;;;;;;;;;;;;;;;;;;5049376;28;1162;-58
2023/06/25 01:33:33;;;;;;;;;;;;;;;;;;5049250;28;1163;-57
2023/06/25 01:35:58;;;;;;;;;;;;;;;;;;5049143;28;1191;-58
2023/06/25 01:38:24;;;;;;;;;;;;;;;;;;5048938;28;1183;-58
2023/06/25 01:40:49;;;;;;;;;;;;;;;;;;5048630;28;1018;-58
2023/06/25 01:43:14;;;;;;;;;;;;;;;;;;5048979;28;1100;-58
2023/06/25 01:45:40;;;;;;;;;;;;;;;;;;5048940;28;1084;-59
2023/06/25 01:48:05;;;;;;;;;;;;;;;;;;5050334;28;1963;-58
2023/06/25 01:50:31;;;;;;;;;;;;;;;;;;5053223;28;1163;-58
2023/06/25 01:52:56;;;;;;;;;;;;;;;;;;5052774;28;1119;-58
2023/06/25 01:55:21;;;;;;;;;;;;;;;;;;5044885;28;1639;-58
2023/06/25 01:57:46;;;;;;;;;;;;;;;;;;5046928;28;1104;-59
2023/06/25 02:00:15;;;;;;;;;;;;;;;;;;5051399;28;1176;-57
2023/06/25 02:02:40;;;;;;;;;;;;;;;;;;5053291;28;1243;-58
2023/06/25 02:05:05;;;;;;;;;;;;;;;;;;5052934;28;1152;-58
2023/06/25 02:07:31;;;;;;;;;;;;;;;;;;5051443;28;1973;-58
2023/06/25 02:09:56;;;;;;;;;;;;;;;;;;5052216;28;1132;-59
2023/06/25 02:12:21;;;;;;;;;;;;;;;;;;5052782;28;1237;-58
2023/06/25 02:14:47;;;;;;;;;;;;;;;;;;5052486;28;1286;-58
2023/06/25 02:17:12;;;;;;;;;;;;;;;;;;5053879;28;1241;-58
2023/06/25 02:19:37;;;;;;;;;;;;;;;;;;5052531;28;1092;-59
2023/06/25 02:22:02;;;;;;;;;;;;;;;;;;5052210;28;1144;-59
2023/06/25 02:24:28;;;;;;;;;;;;;;;;;;5051587;28;1499;-58
2023/06/25 02:26:53;;;;;;;;;;;;;;;;;;5039195;28;1966;-58
2023/06/25 02:29:18;;;;;;;;;;;;;;;;;;5052577;28;1211;-59
2023/06/25 02:31:43;;;;;;;;;;;;;;;;;;5052538;28;1345;-58
2023/06/25 02:34:09;;;;;;;;;;;;;;;;;;5052442;28;1091;-58
2023/06/25 02:36:34;;;;;;;;;;;;;;;;;;5052667;28;958;-58
2023/06/25 02:38:59;;;;;;;;;;;;;;;;;;5052097;28;1096;-58
2023/06/25 02:41:25;;;;;;;;;;;;;;;;;;5052445;28;1108;-59
2023/06/25 02:43:50;;;;;;;;;;;;;;;;;;5052506;28;1225;-58
2023/06/25 02:46:15;;;;;;;;;;;;;;;;;;5052437;28;1968;-57
2023/06/25 02:48:42;;;;;;;;;;;;;;;;;;5050897;28;1104;-58
2023/06/25 02:51:08;;;;;;;;;;;;;;;;;;5051857;28;1305;-58
2023/06/25 02:53:33;;;;;;;;;;;;;;;;;;5051856;28;1198;-58
2023/06/25 02:55:58;;;;;;;;;;;;;;;;;;5039515;28;1725;-59
2023/06/25 02:58:23;;;;;;;;;;;;;;;;;;5050124;28;1089;-58
2023/06/25 03:00:49;;;;;;;;;;;;;;;;;;5051781;28;1151;-58
2023/06/25 03:03:14;;;;;;;;;;;;;;;;;;5050372;28;1124;-58
2023/06/25 03:05:39;;;;;;;;;;;;;;;;;;5051544;28;1099;-59
2023/06/25 03:08:04;;;;;;;;;;;;;;;;;;5051376;28;1921;-58
2023/06/25 03:10:30;;;;;;;;;;;;;;;;;;5051636;28;1100;-58
2023/06/25 03:12:55;;;;;;;;;;;;;;;;;;5051567;28;1116;-58
2023/06/25 03:15:21;;;;;;;;;;;;;;;;;;5052986;28;1179;-57
2023/06/25 03:17:46;;;;;;;;;;;;;;;;;;5051677;28;1048;-58
2023/06/25 03:20:12;;;;;;;;;;;;;;;;;;5050134;28;1097;-58
2023/06/25 03:22:37;;;;;;;;;;;;;;;;;;5051503;28;1113;-58
2023/06/25 03:25:03;;;;;;;;;;;;;;;;;;5046372;28;1590;-57
2023/06/25 03:27:28;;;;;;;;;;;;;;;;;;5042127;28;1960;-58
2023/06/25 03:29:53;;;;;;;;;;;;;;;;;;5050938;28;1122;-58
2023/06/25 03:32:18;;;;;;;;;;;;;;;;;;5049840;28;1120;-57
2023/06/25 03:34:44;;;;;;;;;;;;;;;;;;5050145;28;1183;-59
2023/06/25 03:37:09;;;;;;;;;;;;;;;;;;5051266;28;1389;-58
2023/06/25 03:39:34;;;;;;;;;;;;;;;;;;5050796;28;1088;-58
2023/06/25 03:41:59;;;;;;;;;;;;;;;;;;5051541;28;1100;-58
2023/06/25 03:44:25;;;;;;;;;;;;;;;;;;5051256;28;1072;-58
2023/06/25 03:46:50;;;;;;;;;;;;;;;;;;5051103;28;1914;-58
2023/06/25 03:49:15;;;;;;;;;;;;;;;;;;5051049;28;1159;-58
2023/06/25 03:51:41;;;;;;;;;;;;;;;;;;5050982;28;1202;-58
2023/06/25 03:54:06;;;;;;;;;;;;;;;;;;5051002;28;1096;-58
2023/06/25 03:56:31;;;;;;;;;;;;;;;;;;5037122;28;1690;-58
2023/06/25 03:58:56;;;;;;;;;;;;;;;;;;5050828;28;1163;-58
2023/06/25 04:01:22;;;;;;;;;;;;;;;;;;5050975;28;985;-58
2023/06/25 04:03:47;;;;;;;;;;;;;;;;;;5050718;28;1088;-58
2023/06/25 04:06:12;;;;;;;;;;;;;;;;;;5050372;28;1910;-58
2023/06/25 04:08:40;;;;;;;;;;;;;;;;;;5050740;28;1131;-58
2023/06/25 04:11:05;;;;;;;;;;;;;;;;;;5049814;28;1124;-58
2023/06/25 04:13:31;;;;;;;;;;;;;;;;;;5050641;28;1100;-58
2023/06/25 04:15:56;;;;;;;;;;;;;;;;;;5051929;28;1153;-58
2023/06/25 04:18:21;;;;;;;;;;;;;;;;;;5050667;28;1234;-58
2023/06/25 04:20:46;;;;;;;;;;;;;;;;;;5050991;28;1076;-58
2023/06/25 04:23:12;;;;;;;;;;;;;;;;;;5050800;28;1090;-58
2023/06/25 04:25:37;;;;;;;;;;;;;;;;;;5040950;28;1678;-59
2023/06/25 04:28:02;;;;;;;;;;;;;;;;;;5045185;28;1914;-59
2023/06/25 04:30:27;;;;;;;;;;;;;;;;;;5050250;28;1215;-59
2023/06/25 04:32:54;;;;;;;;;;;;;;;;;;5050033;28;1100;-58
2023/06/25 04:35:19;;;;;;;;;;;;;;;;;;5050037;28;1289;-59
2023/06/25 04:37:45;;;;;;;;;;;;;;;;;;5049969;28;1108;-59
2023/06/25 04:40:10;;;;;;;;;;;;;;;;;;5050396;28;1077;-58
2023/06/25 04:42:36;;;;;;;;;;;;;;;;;;5050030;28;1091;-58
2023/06/25 04:45:01;;;;;;;;;;;;;;;;;;5050053;28;1071;-58
2023/06/25 04:47:26;;;;;;;;;;;;;;;;;;5050580;28;1962;-58
2023/06/25 04:49:51;;;;;;;;;;;;;;;;;;5050287;28;1144;-59
2023/06/25 04:52:19;;;;;;;;;;;;;;;;;;5049655;28;1256;-58
2023/06/25 04:54:45;;;;;;;;;;;;;;;;;;5048090;28;1559;-57
2023/06/25 04:57:10;;;;;;;;;;;;;;;;;;5036680;28;1263;-58
2023/06/25 04:59:36;;;;;;;;;;;;;;;;;;5049610;28;1244;-58
2023/06/25 05:02:01;;;;;;;;;;;;;;;;;;5049927;28;1009;-58
2023/06/25 05:04:26;;;;;;;;;;;;;;;;;;5049596;28;1148;-57
2023/06/25 05:06:51;;;;;;;;;;;;;;;;;;5049799;28;1918;-58
2023/06/25 05:09:17;;;;;;;;;;;;;;;;;;5047958;28;1658;-58
2023/06/25 05:11:42;;;;;;;;;;;;;;;;;;5049586;28;1084;-58
2023/06/25 05:14:07;;;;;;;;;;;;;;;;;;5049370;28;1096;-58
2023/06/25 05:16:32;;;;;;;;;;;;;;;;;;5051167;28;1162;-58
2023/06/25 05:18:58;;;;;;;;;;;;;;;;;;5049256;28;1180;-58
2023/06/25 05:21:23;;;;;;;;;;;;;;;;;;5049629;28;1119;-57
2023/06/25 05:24:06;;;;;;;;;;;;;;;;;;5047825;28;1112;-58
2023/06/25 05:26:32;;;;;;;;;;;;;;;;;;5035443;28;1910;-59
2023/06/25 05:28:57;;;;;;;;;;;;;;;;;;5047860;28;1231;-57
2023/06/25 05:31:23;;;;;;;;;;;;;;;;;;5049205;28;1159;-58
2023/06/25 05:33:48;;;;;;;;;;;;;;;;;;5049256;28;1171;-57
2023/06/25 05:36:14;;;;;;;;;;;;;;;;;;5049191;28;1178;-58
2023/06/25 05:38:39;;;;;;;;;;;;;;;;;;5048811;28;1268;-58
2023/06/25 05:41:04;;;;;;;;;;;;;;;;;;5049081;28;1086;-58
2023/06/25 05:43:29;;;;;;;;;;;;;;;;;;5049021;28;988;-57
2023/06/25 05:45:55;;;;;;;;;;;;;;;;;;5048976;28;1190;-57
2023/06/25 05:48:20;;;;;;;;;;;;;;;;;;5048839;28;1971;-57
2023/06/25 05:50:45;;;;;;;;;;;;;;;;;;5048891;28;1158;-58
2023/06/25 05:53:10;;;;;;;;;;;;;;;;;;5048957;28;1159;-57
2023/06/25 05:55:36;;;;;;;;;;;;;;;;;;5040378;28;1539;-57
2023/06/25 05:58:01;;;;;;;;;;;;;;;;;;5042540;28;1172;-57
2023/06/25 06:00:26;;;;;;;;;;;;;;;;;;5047532;28;1156;-58
2023/06/25 06:02:51;;;;;;;;;;;;;;;;;;5048593;28;1116;-58
2023/06/25 06:05:17;;;;;;;;;;;;;;;;;;5049023;28;1156;-57
2023/06/25 06:07:42;;;;;;;;;;;;;;;;;;5049078;28;1963;-58
2023/06/25 06:10:07;;;;;;;;;;;;;;;;;;5049006;28;1231;-58
2023/06/25 06:12:33;;;;;;;;;;;;;;;;;;5048862;28;1116;-57
2023/06/25 06:14:58;;;;;;;;;;;;;;;;;;5050328;28;1167;-58
2023/06/25 06:17:23;;;;;;;;;;;;;;;;;;5048627;28;1331;-59
2023/06/25 06:19:48;;;;;;;;;;;;;;;;;;5048624;28;1104;-56
2023/06/25 06:22:15;;;;;;;;;;;;;;;;;;5048725;28;1088;-57
2023/06/25 06:24:40;;;;;;;;;;;;;;;;;;5047878;28;1440;-58
2023/06/25 06:27:05;;;;;;;;;;;;;;;;;;5035143;28;1969;-58
2023/06/25 06:29:31;;;;;;;;;;;;;;;;;;5048540;28;1112;-58
2023/06/25 06:31:56;;;;;;;;;;;;;;;;;;5049055;28;1069;-58
2023/06/25 06:34:21;;;;;;;;;;;;;;;;;;5049983;28;1076;-57
2023/06/25 06:36:46;;;;;;;;;;;;;;;;;;5052115;28;1156;-58
2023/06/25 06:39:13;;;;;;;;;;;;;;;;;;5051914;28;1241;-57
2023/06/25 06:41:38;;;;;;;;;;;;;;;;;;5052028;28;1075;-58
2023/06/25 06:44:10;;;;;;;;;;;;;;;;;;5050248;28;1148;-57
2023/06/25 06:46:35;;;;;;;;;;;;;;;;;;5049504;28;1959;-58
2023/06/25 06:49:01;;;;;;;;;;;;;;;;;;5046346;28;1883;-57
2023/06/25 06:51:26;;;;;;;;;;;;;;;;;;5051598;28;965;-59
2023/06/25 06:53:51;;;;;;;;;;;;;;;;;;5052070;28;1112;-58
2023/06/25 06:56:16;;;;;;;;;;;;;;;;;;5038133;28;1595;-56
2023/06/25 06:58:42;;;;;;;;;;;;;;;;;;5049117;28;1689;-57
2023/06/25 07:01:07;;;;;;;;;;;;;;;;;;5051518;28;1380;-58
2023/06/25 07:03:32;;;;;;;;;;;;;;;;;;5050541;28;1195;-58
2023/06/25 07:05:57;;;;;;;;;;;;;;;;;;5050594;28;1796;-56
2023/06/25 07:08:23;;;;;;;;;;;;;;;;;;5049824;28;1910;-58
2023/06/25 07:10:48;;;;;;;;;;;;;;;;;;5030333;28;3057;-56
2023/06/25 07:13:13;;;;;;;;;;;;;;;;;;5046134;28;3148;-55
2023/06/25 07:15:38;;;;;;;;;;;;;;;;;;5048857;28;1949;-58
2023/06/25 07:18:04;;;;;;;;;;;;;;;;;;5042285;28;2196;-58
2023/06/25 07:20:29;;;;;;;;;;;;;;;;;;5043308;28;1872;-55
2023/06/25 07:22:54;;;;;;;;;;;;;;;;;;5023192;28;6821;-55
2023/06/25 07:25:20;;;;;;;;;;;;;;;;;;5043137;28;1860;-57
2023/06/25 07:27:45;;;;;;;;;;;;;;;;;;5046428;28;1966;-57
2023/06/25 07:30:10;;;;;;;;;;;;;;;;;;5039284;28;1778;-58
2023/06/25 07:32:36;;;;;;;;;;;;;;;;;;5022011;28;6432;-57
2023/06/25 07:35:02;;;;;;;;;;;;;;;;;;5029980;28;5265;-56
2023/06/25 07:37:27;;;;;;;;;;;;;;;;;;5044614;28;5154;-59
2023/06/25 07:39:53;;;;;;;;;;;;;;;;;;5040744;28;5002;-56
2023/06/25 07:42:18;;;;;;;;;;;;;;;;;;5045257;28;5571;-63
2023/06/25 07:44:43;;;;;;;;;;;;;;;;;;5037580;28;5057;-58
2023/06/25 07:47:09;;;;;;;;;;;;;;;;;;5042157;28;4945;-59
2023/06/25 07:49:34;;;;;;;;;;;;;;;;;;5035380;28;5241;-59
2023/06/25 07:51:59;;;;;;;;;;;;;;;;;;5039479;28;4962;-61
2023/06/25 07:54:24;;;;;;;;;;;;;;;;;;5068741;28;5046;-57
2023/06/25 07:56:50;;;;;;;;;;;;;;;;;;5041312;28;4948;-64
2023/06/25 07:59:15;;;;;;;;;;;;;;;;;;5036415;28;5048;-63
2023/06/25 08:01:40;;;;;;;;;;;;;;;;;;5036167;28;4500;-59
2023/06/25 08:04:06;;;;;;;;;;;;;;;;;;5068729;28;2051;-59
2023/06/25 08:06:31;;;;;;;;;;;;;;;;;;5041263;28;5267;-59
2023/06/25 08:08:56;;;;;;;;;;;;;;;;;;5041462;28;4663;-59
2023/06/25 08:11:22;;;;;;;;;;;;;;;;;;5034680;28;4925;-60
2023/06/25 08:13:48;;;;;;;;;;;;;;;;;;5036408;28;3667;-59
2023/06/25 08:16:13;;;;;;;;;;;;;;;;;;5030712;28;5011;-57
2023/06/25 08:18:38;;;;;;;;;;;;;;;;;;5033417;28;5111;-58
2023/06/25 08:21:04;;;;;;;;;;;;;;;;;;5031364;28;4587;-59
2023/06/25 08:23:29;;;;;;;;;;;;;;;;;;5030116;28;5061;-58
2023/06/25 08:25:55;;;;;;;;;;;;;;;;;;5031973;28;3426;-59
2023/06/25 08:28:20;;;;;;;;;;;;;;;;;;5034896;28;4553;-59
2023/06/25 08:30:45;;;;;;;;;;;;;;;;;;5043503;28;4622;-59
2023/06/25 08:33:11;;;;;;;;;;;;;;;;;;5039276;28;4534;-59
2023/06/25 08:35:36;;;;;;;;;;;;;;;;;;5025805;28;4993;-58
2023/06/25 08:38:01;;;;;;;;;;;;;;;;;;5068615;28;1081;-58
2023/06/25 08:40:27;;;;;;;;;;;;;;;;;;5030139;28;5114;-58
2023/06/25 08:42:52;;;;;;;;;;;;;;;;;;5038873;28;4588;-58
2023/06/25 08:45:17;;;;;;;;;;;;;;;;;;5031761;28;4465;-57
2023/06/25 08:47:43;;;;;;;;;;;;;;;;;;5029728;28;4583;-57
2023/06/25 08:50:08;;;;;;;;;;;;;;;;;;5028323;28;2017;-56
2023/06/25 08:52:34;;;;;;;;;;;;;;;;;;5032167;28;4504;-59
2023/06/25 08:54:59;;;;;;;;;;;;;;;;;;5015556;28;6269;-60
2023/06/25 08:57:24;;;;;;;;;;;;;;;;;;5037101;28;5271;-61
2023/06/25 08:59:50;;;;;;;;;;;;;;;;;;5036500;28;5521;-60
2023/06/25 09:02:15;;;;;;;;;;;;;;;;;;5042035;28;5136;-57
2023/06/25 09:04:40;;;;;;;;;;;;;;;;;;5036401;28;4600;-58
2023/06/25 09:07:09;;;;;;;;;;;;;;;;;;5034781;28;5127;-59
2023/06/25 09:09:34;;;;;;;;;;;;;;;;;;5039459;28;5525;-60
2023/06/25 09:11:59;;;;;;;;;;;;;;;;;;5032327;28;5284;-61
2023/06/25 09:14:25;;;;;;;;;;;;;;;;;;5037426;28;3407;-60
2023/06/25 09:16:50;;;;;;;;;;;;;;;;;;5071746;28;4597;-60
2023/06/25 09:19:18;;;;;;;;;;;;;;;;;;5040203;28;6158;-60
2023/06/25 09:21:44;;;;;;;;;;;;;;;;;;5036812;28;5045;-60
2023/06/25 09:24:13;;;;;;;;;;;;;;;;;;5031300;28;5083;-59
2023/06/25 09:26:48;;;;;;;;;;;;;;;;;;5034494;28;3430;-58
2023/06/25 09:29:13;;;;;;;;;;;;;;;;;;5043213;28;5638;-59
2023/06/25 09:31:42;;;;;;;;;;;;;;;;;;5039865;28;5133;-58
2023/06/25 09:34:08;;;;;;;;;;;;;;;;;;5032252;28;4901;-59
2023/06/25 09:36:33;;;;;;;;;;;;;;;;;;5035787;28;4962;-59
2023/06/25 09:38:59;;;;;;;;;;;;;;;;;;5042402;28;4573;-58
2023/06/25 09:41:24;;;;;;;;;;;;;;;;;;5044619;28;2211;-58
2023/06/25 09:43:49;;;;;;;;;;;;;;;;;;5036142;28;5010;-59
2023/06/25 09:46:14;;;;;;;;;;;;;;;;;;5034269;28;4785;-59
2023/06/25 09:48:40;;;;;;;;;;;;;;;;;;5037754;28;4529;-59
2023/06/25 09:51:06;;;;;;;;;;;;;;;;;;5041830;28;5161;-59
2023/06/25 09:53:32;;;;;;;;;;;;;;;;;;5036259;28;3344;-57
2023/06/25 09:55:58;;;;;;;;;;;;;;;;;;5055264;28;5089;-57
2023/06/25 09:58:24;;;;;;;;;;;;;;;;;;5042599;28;5267;-59
2023/06/25 10:00:50;;;;;;;;;;;;;;;;;;5042817;28;4712;-59
2023/06/25 10:03:15;;;;;;;;;;;;;;;;;;5037305;28;5417;-59
2023/06/25 10:05:40;;;;;;;;;;;;;;;;;;5039363;28;3135;-57
2023/06/25 10:08:06;;;;;;;;;;;;;;;;;;5031751;28;5012;-56
2023/06/25 10:10:32;;;;;;;;;;;;;;;;;;5037691;28;5090;-55
2023/06/25 10:12:57;;;;;;;;;;;;;;;;;;5044796;28;5145;-56
2023/06/25 10:15:32;;;;;;;;;;;;;;;;;;5034487;28;4796;-56
2023/06/25 10:17:58;;;;;;;;;;;;;;;;;;5040534;28;4563;-57
2023/06/25 10:20:27;;;;;;;;;;;;;;;;;;5045944;28;3277;-56
2023/06/25 10:23:03;;;;;;;;;;;;;;;;;;5040339;28;4440;-56
2023/06/25 10:25:29;;;;;;;;;;;;;;;;;;5041930;28;5169;-56
2023/06/25 10:28:01;;;;;;;;;;;;;;;;;;5043244;28;4685;-56
2023/06/25 10:30:34;;;;;;;;;;;;;;;;;;5050317;28;5176;-56
2023/06/25 10:33:02;;;;;;;;;;;;;;;;;;5044403;28;4708;-55
2023/06/25 10:35:34;;;;;;;;;;;;;;;;;;5036761;28;3385;-55
2023/06/25 10:37:59;;;;;;;;;;;;;;;;;;5042950;28;5002;-55
2023/06/25 10:40:24;;;;;;;;;;;;;;;;;;5046469;28;4806;-55
2023/06/25 10:42:50;;;;;;;;;;;;;;;;;;5063709;28;5052;-56
2023/06/25 10:45:15;;;;;;;;;;;;;;;;;;5044366;28;4728;-56
2023/06/25 10:47:40;;;;;;;;;;;;;;;;;;5050473;28;1971;-55
2023/06/25 10:50:06;;;;;;;;;;;;;;;;;;5046414;28;4981;-56
2023/06/25 10:52:31;;;;;;;;;;;;;;;;;;5048428;28;4432;-55
2023/06/25 10:55:00;;;;;;;;;;;;;;;;;;5042291;28;4443;-57
2023/06/25 10:57:27;;;;;;;;;;;;;;;;;;5038651;28;5141;-56
2023/06/25 10:59:52;;;;;;;;;;;;;;;;;;5050489;28;1748;-56
2023/06/25 11:02:21;;;;;;;;;;;;;;;;;;5046456;28;5093;-56
2023/06/25 11:04:56;;;;;;;;;;;;;;;;;;5036394;28;5044;-56
2023/06/25 11:07:22;;;;;;;;;;;;;;;;;;5049073;28;5229;-58
2023/06/25 11:09:57;;;;;;;;;;;;;;;;;;5050685;28;5224;-56
2023/06/25 11:12:22;;;;;;;;;;;;;;;;;;5042462;28;5226;-56
2023/06/25 11:14:47;;;;;;;;;;;;;;;;;;5050477;28;1263;-56
2023/06/25 11:17:15;;;;;;;;;;;;;;;;;;5045704;28;4528;-58
2023/06/25 11:19:41;;;;;;;;;;;;;;;;;;5037370;28;5156;-57
2023/06/25 11:22:09;;;;;;;;;;;;;;;;;;5040981;28;4899;-57
2023/06/25 11:24:35;;;;;;;;;;;;;;;;;;5046137;28;4465;-56
2023/06/25 11:27:00;;;;;;;;;;;;;;;;;;5043421;28;5305;-56
2023/06/25 11:29:36;;;;;;;;;;;;;;;;;;5050757;28;1230;-57
2023/06/25 11:32:02;;;;;;;;;;;;;;;;;;5063306;28;4456;-57
2023/06/25 11:34:27;;;;;;;;;;;;;;;;;;5058589;28;4602;-56
2023/06/25 11:36:53;;;;;;;;;;;;;;;;;;5049992;28;5158;-57
2023/06/25 11:39:18;;;;;;;;;;;;;;;;;;5044876;28;5100;-58
2023/06/25 11:41:43;;;;;;;;;;;;;;;;;;5050001;28;1090;-55
2023/06/25 11:44:15;;;;;;;;;;;;;;;;;;5049516;28;4990;-56
2023/06/25 11:46:41;;;;;;;;;;;;;;;;;;5043544;28;4855;-55
2023/06/25 11:49:08;;;;;;;;;;;;;;;;;;5038301;28;5188;-56
2023/06/25 11:51:33;;;;;;;;;;;;;;;;;;5040159;28;4641;-56
2023/06/25 11:53:58;;;;;;;;;;;;;;;;;;5049582;28;5855;-56
2023/06/25 11:56:24;;;;;;;;;;;;;;;;;;5044456;28;1913;-56
2023/06/25 11:58:49;;;;;;;;;;;;;;;;;;5046361;28;4899;-56
2023/06/25 12:01:14;;;;;;;;;;;;;;;;;;5036247;28;5127;-57
2023/06/25 12:03:39;;;;;;;;;;;;;;;;;;5044942;28;5073;-54
2023/06/25 12:06:06;;;;;;;;;;;;;;;;;;5040353;28;5034;-56
2023/06/25 12:08:32;;;;;;;;;;;;;;;;;;5045290;28;1933;-57
2023/06/25 12:10:57;;;;;;;;;;;;;;;;;;5043857;28;4513;-55
2023/06/25 12:13:22;;;;;;;;;;;;;;;;;;5043300;28;5030;-56
2023/06/25 12:15:47;;;;;;;;;;;;;;;;;;5038253;28;4462;-57
2023/06/25 12:18:13;;;;;;;;;;;;;;;;;;5048922;28;5046;-55
2023/06/25 12:20:38;;;;;;;;;;;;;;;;;;5049450;28;1140;-58
2023/06/25 12:23:03;;;;;;;;;;;;;;;;;;5049325;28;4978;-57
2023/06/25 12:25:29;;;;;;;;;;;;;;;;;;5034359;28;4972;-56
2023/06/25 12:27:54;;;;;;;;;;;;;;;;;;5046766;28;5217;-57
2023/06/25 12:30:21;;;;;;;;;;;;;;;;;;5041171;28;4537;-58
2023/06/25 12:32:46;;;;;;;;;;;;;;;;;;5047999;28;1276;-57
2023/06/25 12:35:11;;;;;;;;;;;;;;;;;;5048988;28;4965;-56
2023/06/25 12:37:37;;;;;;;;;;;;;;;;;;5048512;28;5328;-57
2023/06/25 12:40:03;;;;;;;;;;;;;;;;;;5048637;28;4892;-55
2023/06/25 12:42:28;;;;;;;;;;;;;;;;;;5047115;28;4968;-54
2023/06/25 12:44:54;;;;;;;;;;;;;;;;;;5049224;28;1089;-55
2023/06/25 12:47:19;;;;;;;;;;;;;;;;;;5047131;28;4905;-56
2023/06/25 12:49:44;;;;;;;;;;;;;;;;;;5048179;28;5061;-55
2023/06/25 12:52:09;;;;;;;;;;;;;;;;;;5039536;28;4602;-56
2023/06/25 12:54:35;;;;;;;;;;;;;;;;;;5048091;28;4869;-54
2023/06/25 12:57:00;;;;;;;;;;;;;;;;;;5033712;28;5061;-56
2023/06/25 12:59:25;;;;;;;;;;;;;;;;;;5048769;28;1101;-57
2023/06/25 13:01:55;;;;;;;;;;;;;;;;;;5044536;28;5101;-57
2023/06/25 13:04:21;;;;;;;;;;;;;;;;;;5046392;28;4649;-56
2023/06/25 13:06:46;;;;;;;;;;;;;;;;;;5046456;28;5072;-56
2023/06/25 13:09:12;;;;;;;;;;;;;;;;;;5043426;28;4438;-56
2023/06/25 13:11:38;;;;;;;;;;;;;;;;;;5039066;28;1207;-57
2023/06/25 13:14:03;;;;;;;;;;;;;;;;;;5047972;28;4991;-56
2023/06/25 13:16:29;;;;;;;;;;;;;;;;;;5046692;28;5459;-54
2023/06/25 13:18:54;;;;;;;;;;;;;;;;;;5042290;28;4978;-56
2023/06/25 13:21:19;;;;;;;;;;;;;;;;;;5048071;28;4497;-57
2023/06/25 13:23:45;;;;;;;;;;;;;;;;;;5046789;28;1262;-57
2023/06/25 13:26:10;;;;;;;;;;;;;;;;;;5036268;28;5818;-56
2023/06/25 13:28:35;;;;;;;;;;;;;;;;;;5038735;28;5087;-56
2023/06/25 13:31:00;;;;;;;;;;;;;;;;;;5046576;28;4466;-56
2023/06/25 13:33:26;;;;;;;;;;;;;;;;;;5047872;28;5091;-56
2023/06/25 13:35:51;;;;;;;;;;;;;;;;;;5046160;28;1204;-58
2023/06/25 13:38:16;;;;;;;;;;;;;;;;;;5046099;28;5050;-56
2023/06/25 13:40:42;;;;;;;;;;;;;;;;;;5043137;28;5037;-57
2023/06/25 13:43:07;;;;;;;;;;;;;;;;;;5046911;28;4982;-56
2023/06/25 13:45:32;;;;;;;;;;;;;;;;;;5040101;28;5096;-56
2023/06/25 13:47:57;;;;;;;;;;;;;;;;;;5047097;28;5112;-56
2023/06/25 13:50:23;;;;;;;;;;;;;;;;;;5048026;28;1347;-56
2023/06/25 13:52:48;;;;;;;;;;;;;;;;;;5037431;28;4966;-56
2023/06/25 13:55:13;;;;;;;;;;;;;;;;;;5036827;28;5042;-56
2023/06/25 13:57:39;;;;;;;;;;;;;;;;;;5046053;28;5016;-57
2023/06/25 14:00:04;;;;;;;;;;;;;;;;;;5041940;28;4493;-56
2023/06/25 14:02:30;;;;;;;;;;;;;;;;;;5041502;28;5152;-56
2023/06/25 14:04:55;;;;;;;;;;;;;;;;;;5039262;28;4992;-57
2023/06/25 14:07:20;;;;;;;;;;;;;;;;;;5035306;28;5183;-57
2023/06/25 14:09:45;;;;;;;;;;;;;;;;;;5038757;28;4521;-56
2023/06/25 14:12:11;;;;;;;;;;;;;;;;;;5038635;28;5047;-56
2023/06/25 14:14:36;;;;;;;;;;;;;;;;;;5042644;28;1163;-57
2023/06/25 14:17:01;;;;;;;;;;;;;;;;;;5057299;28;4477;-55
2023/06/25 14:19:26;;;;;;;;;;;;;;;;;;5046012;28;5048;-57
2023/06/25 14:21:52;;;;;;;;;;;;;;;;;;5037642;28;4539;-57
2023/06/25 14:24:18;;;;;;;;;;;;;;;;;;5045157;28;5258;-56
2023/06/25 14:26:43;;;;;;;;;;;;;;;;;;5042904;28;1967;-56
2023/06/25 14:29:09;;;;;;;;;;;;;;;;;;5047101;28;5005;-56
2023/06/25 14:31:34;;;;;;;;;;;;;;;;;;5045995;28;4997;-56
2023/06/25 14:33:59;;;;;;;;;;;;;;;;;;5044135;28;5053;-57
2023/06/25 14:36:25;;;;;;;;;;;;;;;;;;5037088;28;5189;-56
2023/06/25 14:38:50;;;;;;;;;;;;;;;;;;5045749;28;1089;-55
2023/06/25 14:41:15;;;;;;;;;;;;;;;;;;5045691;28;4400;-56
2023/06/25 14:43:40;;;;;;;;;;;;;;;;;;5047073;28;5147;-56
2023/06/25 14:46:06;;;;;;;;;;;;;;;;;;5046923;28;5296;-57
2023/06/25 14:48:31;;;;;;;;;;;;;;;;;;5039798;28;4932;-57
2023/06/25 14:50:56;;;;;;;;;;;;;;;;;;5044345;28;5004;-56
2023/06/25 14:53:21;;;;;;;;;;;;;;;;;;5040972;28;1157;-55
2023/06/25 14:55:47;;;;;;;;;;;;;;;;;;5044082;28;5497;-56
2023/06/25 14:58:12;;;;;;;;;;;;;;;;;;5041959;28;4957;-56
2023/06/25 15:00:37;;;;;;;;;;;;;;;;;;5040408;28;4993;-56
2023/06/25 15:03:02;;;;;;;;;;;;;;;;;;5046209;28;5140;-56
2023/06/25 15:05:28;;;;;;;;;;;;;;;;;;5043437;28;1123;-56
2023/06/25 15:07:53;;;;;;;;;;;;;;;;;;5044536;28;5036;-56
2023/06/25 15:10:18;;;;;;;;;;;;;;;;;;5041658;28;5092;-57
2023/06/25 15:12:43;;;;;;;;;;;;;;;;;;5047886;28;5083;-56
2023/06/25 15:15:09;;;;;;;;;;;;;;;;;;5041052;28;4636;-56
2023/06/25 15:17:34;;;;;;;;;;;;;;;;;;5040239;28;1272;-56
2023/06/25 15:19:59;;;;;;;;;;;;;;;;;;5047050;28;5016;-57
2023/06/25 15:22:24;;;;;;;;;;;;;;;;;;5050650;28;4428;-56
2023/06/25 15:24:50;;;;;;;;;;;;;;;;;;5042652;28;4458;-55
2023/06/25 15:27:15;;;;;;;;;;;;;;;;;;5043040;28;5015;-57
2023/06/25 15:29:40;;;;;;;;;;;;;;;;;;5050762;28;1533;-57
2023/06/25 15:32:06;;;;;;;;;;;;;;;;;;5049204;28;4575;-56
2023/06/25 15:34:31;;;;;;;;;;;;;;;;;;5048249;28;5031;-57
2023/06/25 15:36:56;;;;;;;;;;;;;;;;;;5049923;28;4869;-56
2023/06/25 15:39:22;;;;;;;;;;;;;;;;;;5049807;28;5076;-56
2023/06/25 15:41:47;;;;;;;;;;;;;;;;;;5049254;28;1155;-57
2023/06/25 15:44:12;;;;;;;;;;;;;;;;;;5044567;28;5006;-57
2023/06/25 15:46:38;;;;;;;;;;;;;;;;;;5049744;28;4969;-56
2023/06/25 15:49:03;;;;;;;;;;;;;;;;;;5049190;28;4921;-57
2023/06/25 15:51:28;;;;;;;;;;;;;;;;;;5047927;28;5109;-56
2023/06/25 15:53:54;;;;;;;;;;;;;;;;;;5050248;28;1193;-57
2023/06/25 15:56:19;;;;;;;;;;;;;;;;;;5043515;28;5704;-56
2023/06/25 15:58:44;;;;;;;;;;;;;;;;;;5048308;28;4914;-57
2023/06/25 16:01:09;;;;;;;;;;;;;;;;;;5036403;28;5223;-57
2023/06/25 16:03:36;;;;;;;;;;;;;;;;;;5043559;28;5127;-57
2023/06/25 16:06:01;;;;;;;;;;;;;;;;;;5042603;28;5043;-56
2023/06/25 16:08:27;;;;;;;;;;;;;;;;;;5044121;28;1910;-57
2023/06/25 16:10:52;;;;;;;;;;;;;;;;;;5040725;28;5059;-56
2023/06/25 16:13:17;;;;;;;;;;;;;;;;;;5037676;28;5164;-55
2023/06/25 16:15:43;;;;;;;;;;;;;;;;;;5044979;28;4954;-56
2023/06/25 16:18:09;;;;;;;;;;;;;;;;;;5041626;28;4501;-61
2023/06/25 16:20:34;;;;;;;;;;;;;;;;;;5046771;28;1554;-56
2023/06/25 16:22:59;;;;;;;;;;;;;;;;;;5061923;28;5082;-54
2023/06/25 16:25:24;;;;;;;;;;;;;;;;;;5038708;28;4496;-56
2023/06/25 16:27:50;;;;;;;;;;;;;;;;;;5046156;28;5045;-55
2023/06/25 16:30:15;;;;;;;;;;;;;;;;;;5041975;28;5072;-56
2023/06/25 16:32:40;;;;;;;;;;;;;;;;;;5048015;28;3929;-57
2023/06/25 16:35:05;;;;;;;;;;;;;;;;;;5046150;28;5037;-56
2023/06/25 16:37:31;;;;;;;;;;;;;;;;;;5036938;28;5254;-56
2023/06/25 16:39:56;;;;;;;;;;;;;;;;;;5038872;28;5146;-57
2023/06/25 16:42:22;;;;;;;;;;;;;;;;;;5039567;28;4672;-58
2023/06/25 16:44:47;;;;;;;;;;;;;;;;;;5034259;28;3269;-56
2023/06/25 16:47:13;;;;;;;;;;;;;;;;;;5039774;28;5097;-57
2023/06/25 16:49:39;;;;;;;;;;;;;;;;;;5040384;28;5075;-57
2023/06/25 16:52:06;;;;;;;;;;;;;;;;;;5036492;28;5074;-57